Terminal Aerodrome Forecast
Issued by NWS

Home | Current Version | Previous Version | Text Only | Print | Product List | Glossary On
Versions: 1 2 3 4 5 6 7 8 9 10 11 12 13
000
FTUS45 KPSR 230800 AAA
TAFSDL
TAF AMD
KSDL 230857Z 2309/2406 24006KT P6SM FEW250
     FM231100 VRB03KT P6SM SCT250
     FM231600 24010KT P6SM FEW250
     FM240200 VRB03KT P6SM SCT250=

USA.gov is the U.S. government's official web portal to all federal, state and local government web resources and services.